sensor_id;sensor_type;location;lat;lon;timestamp;P1;durP1;ratioP1;P2;durP2;ratioP2
7645;SDS011;3864;48.180;14.178;2024-02-23T00:01:06;11.07;;;8.38;;
7645;SDS011;3864;48.180;14.178;2024-02-23T00:03:35;11.57;;;8.30;;
7645;SDS011;3864;48.180;14.178;2024-02-23T00:06:02;13.43;;;9.00;;
7645;SDS011;3864;48.180;14.178;2024-02-23T00:08:30;15.68;;;9.07;;
7645;SDS011;3864;48.180;14.178;2024-02-23T00:10:57;13.88;;;8.80;;
7645;SDS011;3864;48.180;14.178;2024-02-23T00:13:25;11.52;;;8.07;;
7645;SDS011;3864;48.180;14.178;2024-02-23T00:15:52;14.63;;;8.98;;
7645;SDS011;3864;48.180;14.178;2024-02-23T00:18:19;13.93;;;8.88;;
7645;SDS011;3864;48.180;14.178;2024-02-23T00:20:48;14.02;;;9.13;;
7645;SDS011;3864;48.180;14.178;2024-02-23T00:23:15;14.27;;;9.27;;
7645;SDS011;3864;48.180;14.178;2024-02-23T00:25:44;11.50;;;8.82;;
7645;SDS011;3864;48.180;14.178;2024-02-23T00:28:11;14.63;;;9.23;;
7645;SDS011;3864;48.180;14.178;2024-02-23T00:30:38;14.95;;;9.95;;
7645;SDS011;3864;48.180;14.178;2024-02-23T00:33:05;14.45;;;9.45;;
7645;SDS011;3864;48.180;14.178;2024-02-23T00:35:32;16.13;;;10.35;;
7645;SDS011;3864;48.180;14.178;2024-02-23T00:38:01;16.45;;;9.55;;
7645;SDS011;3864;48.180;14.178;2024-02-23T00:40:29;10.93;;;8.05;;
7645;SDS011;3864;48.180;14.178;2024-02-23T00:42:56;15.93;;;9.55;;
7645;SDS011;3864;48.180;14.178;2024-02-23T00:45:25;20.55;;;9.73;;
7645;SDS011;3864;48.180;14.178;2024-02-23T00:47:52;15.10;;;10.07;;
7645;SDS011;3864;48.180;14.178;2024-02-23T00:50:20;19.73;;;9.73;;
7645;SDS011;3864;48.180;14.178;2024-02-23T00:52:48;12.18;;;9.07;;
7645;SDS011;3864;48.180;14.178;2024-02-23T00:55:17;13.93;;;10.18;;
7645;SDS011;3864;48.180;14.178;2024-02-23T00:57:45;15.60;;;9.70;;
7645;SDS011;3864;48.180;14.178;2024-02-23T01:00:12;14.65;;;10.27;;
7645;SDS011;3864;48.180;14.178;2024-02-23T01:02:40;13.45;;;10.27;;
7645;SDS011;3864;48.180;14.178;2024-02-23T01:05:07;16.52;;;11.13;;
7645;SDS011;3864;48.180;14.178;2024-02-23T01:07:35;14.90;;;10.07;;
7645;SDS011;3864;48.180;14.178;2024-02-23T01:10:03;13.43;;;9.32;;
7645;SDS011;3864;48.180;14.178;2024-02-23T01:12:33;17.45;;;11.00;;
7645;SDS011;3864;48.180;14.178;2024-02-23T01:15:00;16.10;;;10.07;;
7645;SDS011;3864;48.180;14.178;2024-02-23T01:17:29;13.23;;;9.80;;
7645;SDS011;3864;48.180;14.178;2024-02-23T01:19:56;14.23;;;10.15;;
7645;SDS011;3864;48.180;14.178;2024-02-23T01:22:23;14.93;;;10.60;;
7645;SDS011;3864;48.180;14.178;2024-02-23T01:24:50;14.52;;;10.48;;
7645;SDS011;3864;48.180;14.178;2024-02-23T01:27:18;13.52;;;10.57;;
7645;SDS011;3864;48.180;14.178;2024-02-23T01:29:49;16.15;;;10.65;;
7645;SDS011;3864;48.180;14.178;2024-02-23T01:32:16;15.45;;;10.88;;
7645;SDS011;3864;48.180;14.178;2024-02-23T01:34:43;17.58;;;11.38;;
7645;SDS011;3864;48.180;14.178;2024-02-23T01:37:10;17.40;;;11.52;;
7645;SDS011;3864;48.180;14.178;2024-02-23T01:39:38;16.75;;;10.80;;
7645;SDS011;3864;48.180;14.178;2024-02-23T01:42:05;19.10;;;11.40;;
7645;SDS011;3864;48.180;14.178;2024-02-23T01:44:32;15.93;;;11.48;;
7645;SDS011;3864;48.180;14.178;2024-02-23T01:47:01;13.82;;;11.02;;
7645;SDS011;3864;48.180;14.178;2024-02-23T01:49:28;17.17;;;11.07;;
7645;SDS011;3864;48.180;14.178;2024-02-23T01:51:57;13.32;;;9.02;;
7645;SDS011;3864;48.180;14.178;2024-02-23T01:54:25;12.35;;;7.68;;
7645;SDS011;3864;48.180;14.178;2024-02-23T01:56:53;12.55;;;7.90;;
7645;SDS011;3864;48.180;14.178;2024-02-23T01:59:21;9.15;;;6.88;;
7645;SDS011;3864;48.180;14.178;2024-02-23T02:01:49;12.35;;;7.90;;
7645;SDS011;3864;48.180;14.178;2024-02-23T02:04:19;11.63;;;8.45;;
7645;SDS011;3864;48.180;14.178;2024-02-23T02:06:46;11.70;;;7.32;;
7645;SDS011;3864;48.180;14.178;2024-02-23T02:09:15;8.88;;;5.93;;
7645;SDS011;3864;48.180;14.178;2024-02-23T02:11:45;6.47;;;4.68;;
7645;SDS011;3864;48.180;14.178;2024-02-23T02:14:13;9.45;;;3.40;;
7645;SDS011;3864;48.180;14.178;2024-02-23T02:16:40;4.88;;;2.80;;
7645;SDS011;3864;48.180;14.178;2024-02-23T02:19:09;4.05;;;2.45;;
7645;SDS011;3864;48.180;14.178;2024-02-23T02:21:38;3.00;;;2.22;;
7645;SDS011;3864;48.180;14.178;2024-02-23T02:24:06;4.38;;;1.80;;
7645;SDS011;3864;48.180;14.178;2024-02-23T02:26:34;2.83;;;1.73;;
7645;SDS011;3864;48.180;14.178;2024-02-23T02:29:02;2.15;;;1.40;;
7645;SDS011;3864;48.180;14.178;2024-02-23T02:31:29;3.90;;;1.90;;
7645;SDS011;3864;48.180;14.178;2024-02-23T02:34:02;3.08;;;1.73;;
7645;SDS011;3864;48.180;14.178;2024-02-23T02:36:29;3.42;;;1.77;;
7645;SDS011;3864;48.180;14.178;2024-02-23T02:38:57;3.20;;;2.00;;
7645;SDS011;3864;48.180;14.178;2024-02-23T02:41:27;3.35;;;1.90;;
7645;SDS011;3864;48.180;14.178;2024-02-23T02:43:55;3.80;;;2.47;;
7645;SDS011;3864;48.180;14.178;2024-02-23T02:46:22;4.53;;;2.85;;
7645;SDS011;3864;48.180;14.178;2024-02-23T02:48:49;4.35;;;2.85;;
7645;SDS011;3864;48.180;14.178;2024-02-23T02:51:16;4.55;;;2.80;;
7645;SDS011;3864;48.180;14.178;2024-02-23T02:53:44;4.82;;;2.88;;
7645;SDS011;3864;48.180;14.178;2024-02-23T02:56:12;4.40;;;2.90;;
7645;SDS011;3864;48.180;14.178;2024-02-23T02:58:39;5.50;;;2.67;;
7645;SDS011;3864;48.180;14.178;2024-02-23T03:01:07;4.20;;;2.80;;
7645;SDS011;3864;48.180;14.178;2024-02-23T03:03:34;4.28;;;2.72;;
7645;SDS011;3864;48.180;14.178;2024-02-23T03:06:01;6.40;;;3.00;;
7645;SDS011;3864;48.180;14.178;2024-02-23T03:08:29;4.88;;;3.15;;
7645;SDS011;3864;48.180;14.178;2024-02-23T03:10:57;5.20;;;2.78;;
7645;SDS011;3864;48.180;14.178;2024-02-23T03:13:26;5.15;;;3.15;;
7645;SDS011;3864;48.180;14.178;2024-02-23T03:15:53;3.38;;;2.42;;
7645;SDS011;3864;48.180;14.178;2024-02-23T03:18:21;4.53;;;2.85;;
7645;SDS011;3864;48.180;14.178;2024-02-23T03:20:48;5.45;;;2.88;;
7645;SDS011;3864;48.180;14.178;2024-02-23T03:23:32;4.85;;;2.60;;
7645;SDS011;3864;48.180;14.178;2024-02-23T03:25:59;4.25;;;2.50;;
7645;SDS011;3864;48.180;14.178;2024-02-23T03:30:55;2.88;;;1.90;;
7645;SDS011;3864;48.180;14.178;2024-02-23T03:33:22;3.72;;;2.13;;
7645;SDS011;3864;48.180;14.178;2024-02-23T03:35:49;3.88;;;1.90;;
7645;SDS011;3864;48.180;14.178;2024-02-23T03:38:16;2.83;;;1.80;;
7645;SDS011;3864;48.180;14.178;2024-02-23T03:40:43;3.42;;;1.75;;
7645;SDS011;3864;48.180;14.178;2024-02-23T03:43:10;2.40;;;1.42;;
7645;SDS011;3864;48.180;14.178;2024-02-23T03:45:39;1.95;;;1.48;;
7645;SDS011;3864;48.180;14.178;2024-02-23T03:48:06;2.08;;;1.33;;
7645;SDS011;3864;48.180;14.178;2024-02-23T03:50:34;2.88;;;1.60;;
7645;SDS011;3864;48.180;14.178;2024-02-23T03:53:01;4.00;;;1.63;;
7645;SDS011;3864;48.180;14.178;2024-02-23T03:55:28;3.05;;;1.60;;
7645;SDS011;3864;48.180;14.178;2024-02-23T03:57:56;2.10;;;1.35;;
7645;SDS011;3864;48.180;14.178;2024-02-23T04:00:23;2.10;;;1.15;;
7645;SDS011;3864;48.180;14.178;2024-02-23T04:02:51;1.48;;;1.13;;
7645;SDS011;3864;48.180;14.178;2024-02-23T04:05:18;1.83;;;1.20;;
7645;SDS011;3864;48.180;14.178;2024-02-23T04:10:12;0.80;;;0.70;;
7645;SDS011;3864;48.180;14.178;2024-02-23T04:12:41;1.60;;;0.80;;
7645;SDS011;3864;48.180;14.178;2024-02-23T04:15:09;2.25;;;1.52;;
7645;SDS011;3864;48.180;14.178;2024-02-23T04:17:36;1.60;;;1.15;;
7645;SDS011;3864;48.180;14.178;2024-02-23T04:20:07;1.70;;;1.10;;
7645;SDS011;3864;48.180;14.178;2024-02-23T04:22:35;1.27;;;1.10;;
7645;SDS011;3864;48.180;14.178;2024-02-23T04:25:03;1.58;;;1.20;;
7645;SDS011;3864;48.180;14.178;2024-02-23T04:27:31;1.25;;;0.80;;
7645;SDS011;3864;48.180;14.178;2024-02-23T04:29:57;3.22;;;1.10;;
7645;SDS011;3864;48.180;14.178;2024-02-23T04:32:24;1.13;;;0.77;;
7645;SDS011;3864;48.180;14.178;2024-02-23T04:34:51;1.08;;;1.00;;
7645;SDS011;3864;48.180;14.178;2024-02-23T04:37:20;0.90;;;0.80;;
7645;SDS011;3864;48.180;14.178;2024-02-23T04:39:47;0.80;;;0.70;;
7645;SDS011;3864;48.180;14.178;2024-02-23T04:42:14;1.73;;;0.95;;
7645;SDS011;3864;48.180;14.178;2024-02-23T04:44:41;1.25;;;0.98;;
7645;SDS011;3864;48.180;14.178;2024-02-23T04:47:08;0.95;;;0.73;;
7645;SDS011;3864;48.180;14.178;2024-02-23T04:49:36;0.68;;;0.50;;
7645;SDS011;3864;48.180;14.178;2024-02-23T04:52:04;0.40;;;0.40;;
7645;SDS011;3864;48.180;14.178;2024-02-23T04:54:34;0.40;;;0.40;;
7645;SDS011;3864;48.180;14.178;2024-02-23T04:57:01;0.82;;;0.68;;
7645;SDS011;3864;48.180;14.178;2024-02-23T04:59:28;1.70;;;0.73;;
7645;SDS011;3864;48.180;14.178;2024-02-23T05:01:57;0.38;;;0.38;;
7645;SDS011;3864;48.180;14.178;2024-02-23T05:04:24;0.68;;;0.65;;
7645;SDS011;3864;48.180;14.178;2024-02-23T05:06:51;0.68;;;0.60;;
7645;SDS011;3864;48.180;14.178;2024-02-23T05:09:18;1.20;;;0.73;;
7645;SDS011;3864;48.180;14.178;2024-02-23T05:11:48;0.70;;;0.68;;
7645;SDS011;3864;48.180;14.178;2024-02-23T05:14:15;0.75;;;0.52;;
7645;SDS011;3864;48.180;14.178;2024-02-23T05:16:42;1.13;;;0.55;;
7645;SDS011;3864;48.180;14.178;2024-02-23T05:19:09;1.35;;;1.10;;
7645;SDS011;3864;48.180;14.178;2024-02-23T05:21:37;0.38;;;0.30;;
7645;SDS011;3864;48.180;14.178;2024-02-23T05:24:04;0.85;;;0.45;;
7645;SDS011;3864;48.180;14.178;2024-02-23T05:26:31;0.60;;;0.30;;
7645;SDS011;3864;48.180;14.178;2024-02-23T05:29:00;1.48;;;0.52;;
7645;SDS011;3864;48.180;14.178;2024-02-23T05:34:12;0.88;;;0.60;;
7645;SDS011;3864;48.180;14.178;2024-02-23T05:36:39;1.55;;;0.30;;
7645;SDS011;3864;48.180;14.178;2024-02-23T05:39:07;0.57;;;0.43;;
7645;SDS011;3864;48.180;14.178;2024-02-23T05:41:34;0.47;;;0.40;;
7645;SDS011;3864;48.180;14.178;2024-02-23T05:44:04;0.50;;;0.47;;
7645;SDS011;3864;48.180;14.178;2024-02-23T05:46:32;1.23;;;0.50;;
7645;SDS011;3864;48.180;14.178;2024-02-23T05:48:59;0.52;;;0.47;;
7645;SDS011;3864;48.180;14.178;2024-02-23T05:51:27;1.88;;;0.85;;
7645;SDS011;3864;48.180;14.178;2024-02-23T05:53:55;0.75;;;0.60;;
7645;SDS011;3864;48.180;14.178;2024-02-23T05:56:22;0.65;;;0.65;;
7645;SDS011;3864;48.180;14.178;2024-02-23T05:58:50;0.90;;;0.73;;
7645;SDS011;3864;48.180;14.178;2024-02-23T06:01:19;0.88;;;0.60;;
7645;SDS011;3864;48.180;14.178;2024-02-23T06:03:46;0.47;;;0.47;;
7645;SDS011;3864;48.180;14.178;2024-02-23T06:06:13;0.57;;;0.57;;
7645;SDS011;3864;48.180;14.178;2024-02-23T06:08:40;0.63;;;0.63;;
7645;SDS011;3864;48.180;14.178;2024-02-23T06:11:09;0.80;;;0.65;;
7645;SDS011;3864;48.180;14.178;2024-02-23T06:13:36;0.30;;;0.30;;
7645;SDS011;3864;48.180;14.178;2024-02-23T06:16:04;1.05;;;0.90;;
7645;SDS011;3864;48.180;14.178;2024-02-23T06:18:33;0.22;;;0.22;;
7645;SDS011;3864;48.180;14.178;2024-02-23T06:21:00;0.50;;;0.50;;
7645;SDS011;3864;48.180;14.178;2024-02-23T06:23:29;3.08;;;1.00;;
7645;SDS011;3864;48.180;14.178;2024-02-23T06:25:56;0.57;;;0.52;;
7645;SDS011;3864;48.180;14.178;2024-02-23T06:28:23;0.77;;;0.77;;
7645;SDS011;3864;48.180;14.178;2024-02-23T06:30:50;0.80;;;0.68;;
7645;SDS011;3864;48.180;14.178;2024-02-23T06:33:17;1.38;;;0.68;;
7645;SDS011;3864;48.180;14.178;2024-02-23T06:35:46;0.88;;;0.80;;
7645;SDS011;3864;48.180;14.178;2024-02-23T06:38:13;1.83;;;0.80;;
7645;SDS011;3864;48.180;14.178;2024-02-23T06:40:40;2.20;;;0.95;;
7645;SDS011;3864;48.180;14.178;2024-02-23T06:43:07;0.77;;;0.60;;
7645;SDS011;3864;48.180;14.178;2024-02-23T06:45:35;2.35;;;0.63;;
7645;SDS011;3864;48.180;14.178;2024-02-23T06:48:02;0.88;;;0.47;;
7645;SDS011;3864;48.180;14.178;2024-02-23T06:50:29;1.95;;;0.85;;
7645;SDS011;3864;48.180;14.178;2024-02-23T06:52:58;1.50;;;0.95;;
7645;SDS011;3864;48.180;14.178;2024-02-23T06:55:25;2.83;;;1.40;;
7645;SDS011;3864;48.180;14.178;2024-02-23T06:57:52;2.00;;;1.05;;
7645;SDS011;3864;48.180;14.178;2024-02-23T07:00:20;1.90;;;1.23;;
7645;SDS011;3864;48.180;14.178;2024-02-23T07:02:48;2.72;;;1.45;;
7645;SDS011;3864;48.180;14.178;2024-02-23T07:05:15;3.05;;;1.60;;
7645;SDS011;3864;48.180;14.178;2024-02-23T07:07:42;2.42;;;1.30;;
7645;SDS011;3864;48.180;14.178;2024-02-23T07:10:10;1.25;;;1.10;;
7645;SDS011;3864;48.180;14.178;2024-02-23T07:12:38;3.17;;;1.20;;
7645;SDS011;3864;48.180;14.178;2024-02-23T07:15:05;1.55;;;1.00;;
7645;SDS011;3864;48.180;14.178;2024-02-23T07:17:33;1.75;;;1.13;;
7645;SDS011;3864;48.180;14.178;2024-02-23T07:20:00;3.15;;;1.13;;
7645;SDS011;3864;48.180;14.178;2024-02-23T07:22:30;1.77;;;1.27;;
7645;SDS011;3864;48.180;14.178;2024-02-23T07:24:57;2.15;;;1.20;;
7645;SDS011;3864;48.180;14.178;2024-02-23T07:27:28;2.40;;;1.30;;
7645;SDS011;3864;48.180;14.178;2024-02-23T07:29:55;2.63;;;1.30;;
7645;SDS011;3864;48.180;14.178;2024-02-23T07:32:23;1.30;;;0.90;;
7645;SDS011;3864;48.180;14.178;2024-02-23T07:34:50;1.85;;;1.05;;
7645;SDS011;3864;48.180;14.178;2024-02-23T07:37:18;1.10;;;1.00;;
7645;SDS011;3864;48.180;14.178;2024-02-23T07:39:45;1.60;;;1.05;;
7645;SDS011;3864;48.180;14.178;2024-02-23T07:42:12;1.25;;;0.85;;
7645;SDS011;3864;48.180;14.178;2024-02-23T07:44:45;1.10;;;0.90;;
7645;SDS011;3864;48.180;14.178;2024-02-23T07:47:12;2.38;;;0.98;;
7645;SDS011;3864;48.180;14.178;2024-02-23T07:49:39;1.27;;;0.95;;
7645;SDS011;3864;48.180;14.178;2024-02-23T07:52:07;1.00;;;0.80;;
7645;SDS011;3864;48.180;14.178;2024-02-23T07:54:34;1.42;;;1.05;;
7645;SDS011;3864;48.180;14.178;2024-02-23T07:57:01;1.80;;;1.00;;
7645;SDS011;3864;48.180;14.178;2024-02-23T07:59:29;0.95;;;0.60;;
7645;SDS011;3864;48.180;14.178;2024-02-23T08:01:59;0.98;;;0.77;;
7645;SDS011;3864;48.180;14.178;2024-02-23T08:04:27;1.50;;;0.70;;
7645;SDS011;3864;48.180;14.178;2024-02-23T08:06:54;4.35;;;0.75;;
7645;SDS011;3864;48.180;14.178;2024-02-23T08:09:21;2.75;;;1.20;;
7645;SDS011;3864;48.180;14.178;2024-02-23T08:11:49;1.63;;;0.88;;
7645;SDS011;3864;48.180;14.178;2024-02-23T08:14:16;1.98;;;1.10;;
7645;SDS011;3864;48.180;14.178;2024-02-23T08:16:43;1.17;;;1.10;;
7645;SDS011;3864;48.180;14.178;2024-02-23T08:19:12;2.88;;;1.30;;
7645;SDS011;3864;48.180;14.178;2024-02-23T08:21:39;2.85;;;1.20;;
7645;SDS011;3864;48.180;14.178;2024-02-23T08:24:06;2.75;;;1.35;;
7645;SDS011;3864;48.180;14.178;2024-02-23T08:26:35;3.20;;;1.10;;
7645;SDS011;3864;48.180;14.178;2024-02-23T08:29:04;6.53;;;1.45;;
7645;SDS011;3864;48.180;14.178;2024-02-23T08:31:32;2.00;;;1.25;;
7645;SDS011;3864;48.180;14.178;2024-02-23T08:33:59;1.30;;;1.00;;
7645;SDS011;3864;48.180;14.178;2024-02-23T08:36:28;2.67;;;1.30;;
7645;SDS011;3864;48.180;14.178;2024-02-23T08:38:55;2.70;;;1.30;;
7645;SDS011;3864;48.180;14.178;2024-02-23T08:41:22;1.42;;;1.05;;
7645;SDS011;3864;48.180;14.178;2024-02-23T08:43:49;2.33;;;1.35;;
7645;SDS011;3864;48.180;14.178;2024-02-23T08:48:43;3.55;;;1.25;;
7645;SDS011;3864;48.180;14.178;2024-02-23T08:51:11;2.38;;;1.13;;
7645;SDS011;3864;48.180;14.178;2024-02-23T08:53:40;0.77;;;0.68;;
7645;SDS011;3864;48.180;14.178;2024-02-23T08:56:07;2.35;;;1.23;;
7645;SDS011;3864;48.180;14.178;2024-02-23T08:58:34;1.17;;;0.88;;
7645;SDS011;3864;48.180;14.178;2024-02-23T09:01:02;0.95;;;0.90;;
7645;SDS011;3864;48.180;14.178;2024-02-23T09:03:30;2.13;;;0.90;;
7645;SDS011;3864;48.180;14.178;2024-02-23T09:05:57;3.20;;;1.02;;
7645;SDS011;3864;48.180;14.178;2024-02-23T09:08:25;1.52;;;0.80;;
7645;SDS011;3864;48.180;14.178;2024-02-23T09:10:54;1.15;;;0.93;;
7645;SDS011;3864;48.180;14.178;2024-02-23T09:13:21;2.47;;;1.10;;
7645;SDS011;3864;48.180;14.178;2024-02-23T09:15:48;1.08;;;0.75;;
7645;SDS011;3864;48.180;14.178;2024-02-23T09:18:15;1.35;;;0.80;;
7645;SDS011;3864;48.180;14.178;2024-02-23T09:20:43;1.20;;;0.70;;
7645;SDS011;3864;48.180;14.178;2024-02-23T09:23:11;3.60;;;0.98;;
7645;SDS011;3864;48.180;14.178;2024-02-23T09:25:38;1.42;;;0.80;;
7645;SDS011;3864;48.180;14.178;2024-02-23T09:28:08;0.57;;;0.57;;
7645;SDS011;3864;48.180;14.178;2024-02-23T09:30:36;2.33;;;1.10;;
7645;SDS011;3864;48.180;14.178;2024-02-23T09:33:04;0.88;;;0.88;;
7645;SDS011;3864;48.180;14.178;2024-02-23T09:35:31;1.33;;;0.90;;
7645;SDS011;3864;48.180;14.178;2024-02-23T09:37:58;1.23;;;0.77;;
7645;SDS011;3864;48.180;14.178;2024-02-23T09:40:25;2.10;;;1.00;;
7645;SDS011;3864;48.180;14.178;2024-02-23T09:42:54;1.02;;;0.90;;
7645;SDS011;3864;48.180;14.178;2024-02-23T09:45:25;1.35;;;0.95;;
7645;SDS011;3864;48.180;14.178;2024-02-23T09:47:53;0.85;;;0.85;;
7645;SDS011;3864;48.180;14.178;2024-02-23T09:50:22;0.57;;;0.38;;
7645;SDS011;3864;48.180;14.178;2024-02-23T09:52:50;0.85;;;0.73;;
7645;SDS011;3864;48.180;14.178;2024-02-23T09:55:17;2.67;;;0.85;;
7645;SDS011;3864;48.180;14.178;2024-02-23T09:57:47;0.80;;;0.70;;
7645;SDS011;3864;48.180;14.178;2024-02-23T10:00:24;1.77;;;0.60;;
7645;SDS011;3864;48.180;14.178;2024-02-23T10:02:52;0.77;;;0.57;;
7645;SDS011;3864;48.180;14.178;2024-02-23T10:05:20;1.08;;;0.75;;
7645;SDS011;3864;48.180;14.178;2024-02-23T10:07:52;0.93;;;0.73;;
7645;SDS011;3864;48.180;14.178;2024-02-23T10:10:23;1.15;;;0.70;;
7645;SDS011;3864;48.180;14.178;2024-02-23T10:12:52;0.77;;;0.68;;
7645;SDS011;3864;48.180;14.178;2024-02-23T10:15:19;1.40;;;0.60;;
7645;SDS011;3864;48.180;14.178;2024-02-23T10:17:48;1.48;;;0.70;;
7645;SDS011;3864;48.180;14.178;2024-02-23T10:20:15;1.48;;;1.05;;
7645;SDS011;3864;48.180;14.178;2024-02-23T10:22:42;1.73;;;0.80;;
7645;SDS011;3864;48.180;14.178;2024-02-23T10:25:11;0.68;;;0.55;;
7645;SDS011;3864;48.180;14.178;2024-02-23T10:27:40;1.92;;;1.00;;
7645;SDS011;3864;48.180;14.178;2024-02-23T10:30:08;4.55;;;1.52;;
7645;SDS011;3864;48.180;14.178;2024-02-23T10:32:37;1.58;;;0.75;;
7645;SDS011;3864;48.180;14.178;2024-02-23T10:35:08;1.30;;;0.88;;
7645;SDS011;3864;48.180;14.178;2024-02-23T10:37:36;1.42;;;1.05;;
7645;SDS011;3864;48.180;14.178;2024-02-23T10:40:04;1.77;;;1.10;;
7645;SDS011;3864;48.180;14.178;2024-02-23T10:42:37;1.55;;;1.05;;
7645;SDS011;3864;48.180;14.178;2024-02-23T10:45:06;2.03;;;1.15;;
7645;SDS011;3864;48.180;14.178;2024-02-23T10:47:33;1.30;;;0.95;;
7645;SDS011;3864;48.180;14.178;2024-02-23T10:50:02;0.85;;;0.80;;
7645;SDS011;3864;48.180;14.178;2024-02-23T10:52:31;1.23;;;0.98;;
7645;SDS011;3864;48.180;14.178;2024-02-23T10:55:00;1.17;;;0.82;;
7645;SDS011;3864;48.180;14.178;2024-02-23T10:57:30;1.05;;;0.63;;
7645;SDS011;3864;48.180;14.178;2024-02-23T10:59:58;1.27;;;0.75;;
7645;SDS011;3864;48.180;14.178;2024-02-23T11:02:27;1.25;;;1.10;;
7645;SDS011;3864;48.180;14.178;2024-02-23T11:04:58;0.68;;;0.68;;
7645;SDS011;3864;48.180;14.178;2024-02-23T11:07:29;1.27;;;0.88;;
7645;SDS011;3864;48.180;14.178;2024-02-23T11:09:59;1.17;;;0.85;;
7645;SDS011;3864;48.180;14.178;2024-02-23T11:12:29;1.02;;;0.68;;
7645;SDS011;3864;48.180;14.178;2024-02-23T11:14:57;1.15;;;1.00;;
7645;SDS011;3864;48.180;14.178;2024-02-23T11:17:26;0.75;;;0.55;;
7645;SDS011;3864;48.180;14.178;2024-02-23T11:19:54;1.70;;;0.90;;
7645;SDS011;3864;48.180;14.178;2024-02-23T11:22:25;1.42;;;1.00;;
7645;SDS011;3864;48.180;14.178;2024-02-23T11:24:59;1.17;;;1.10;;
7645;SDS011;3864;48.180;14.178;2024-02-23T11:27:30;1.30;;;1.17;;
7645;SDS011;3864;48.180;14.178;2024-02-23T11:30:04;1.52;;;1.15;;
7645;SDS011;3864;48.180;14.178;2024-02-23T11:32:40;2.97;;;1.13;;
7645;SDS011;3864;48.180;14.178;2024-02-23T11:35:08;2.65;;;1.20;;
7645;SDS011;3864;48.180;14.178;2024-02-23T11:37:46;2.00;;;1.40;;
7645;SDS011;3864;48.180;14.178;2024-02-23T11:40:18;2.13;;;1.20;;
7645;SDS011;3864;48.180;14.178;2024-02-23T11:42:46;2.45;;;1.60;;
7645;SDS011;3864;48.180;14.178;2024-02-23T11:45:14;1.65;;;1.13;;
7645;SDS011;3864;48.180;14.178;2024-02-23T11:47:41;2.42;;;1.40;;
7645;SDS011;3864;48.180;14.178;2024-02-23T11:50:08;2.13;;;1.40;;
7645;SDS011;3864;48.180;14.178;2024-02-23T11:52:36;3.88;;;1.50;;
7645;SDS011;3864;48.180;14.178;2024-02-23T11:55:04;3.08;;;1.50;;
7645;SDS011;3864;48.180;14.178;2024-02-23T11:57:35;1.38;;;1.08;;
7645;SDS011;3864;48.180;14.178;2024-02-23T12:00:03;2.25;;;1.50;;
7645;SDS011;3864;48.180;14.178;2024-02-23T12:02:32;1.92;;;1.27;;
7645;SDS011;3864;48.180;14.178;2024-02-23T12:04:59;2.20;;;1.40;;
7645;SDS011;3864;48.180;14.178;2024-02-23T12:07:26;2.22;;;1.40;;
7645;SDS011;3864;48.180;14.178;2024-02-23T12:09:55;1.75;;;1.17;;
7645;SDS011;3864;48.180;14.178;2024-02-23T12:12:22;2.00;;;1.30;;
7645;SDS011;3864;48.180;14.178;2024-02-23T12:14:52;1.92;;;1.20;;
7645;SDS011;3864;48.180;14.178;2024-02-23T12:17:19;2.05;;;1.30;;
7645;SDS011;3864;48.180;14.178;2024-02-23T12:19:46;2.58;;;1.30;;
7645;SDS011;3864;48.180;14.178;2024-02-23T12:22:14;1.58;;;1.10;;
7645;SDS011;3864;48.180;14.178;2024-02-23T12:24:41;1.65;;;1.13;;
7645;SDS011;3864;48.180;14.178;2024-02-23T12:27:08;1.30;;;1.15;;
7645;SDS011;3864;48.180;14.178;2024-02-23T12:29:36;1.67;;;1.10;;
7645;SDS011;3864;48.180;14.178;2024-02-23T12:32:06;1.55;;;0.98;;
7645;SDS011;3864;48.180;14.178;2024-02-23T12:34:33;2.78;;;2.03;;
7645;SDS011;3864;48.180;14.178;2024-02-23T12:37:02;2.08;;;1.48;;
7645;SDS011;3864;48.180;14.178;2024-02-23T12:39:30;2.65;;;1.40;;
7645;SDS011;3864;48.180;14.178;2024-02-23T12:41:58;1.92;;;1.42;;
7645;SDS011;3864;48.180;14.178;2024-02-23T12:44:28;1.90;;;1.40;;
7645;SDS011;3864;48.180;14.178;2024-02-23T12:46:56;1.52;;;1.20;;
7645;SDS011;3864;48.180;14.178;2024-02-23T12:49:24;1.60;;;1.10;;
7645;SDS011;3864;48.180;14.178;2024-02-23T12:51:51;3.33;;;1.55;;
7645;SDS011;3864;48.180;14.178;2024-02-23T12:54:19;1.60;;;1.30;;
7645;SDS011;3864;48.180;14.178;2024-02-23T12:56:46;1.65;;;1.20;;
7645;SDS011;3864;48.180;14.178;2024-02-23T12:59:13;2.60;;;1.33;;
7645;SDS011;3864;48.180;14.178;2024-02-23T13:01:44;1.60;;;1.50;;
7645;SDS011;3864;48.180;14.178;2024-02-23T13:04:16;1.48;;;0.90;;
7645;SDS011;3864;48.180;14.178;2024-02-23T13:06:45;2.22;;;1.30;;
7645;SDS011;3864;48.180;14.178;2024-02-23T13:09:12;1.40;;;1.17;;
7645;SDS011;3864;48.180;14.178;2024-02-23T13:11:39;1.45;;;1.00;;
7645;SDS011;3864;48.180;14.178;2024-02-23T13:14:07;2.55;;;1.10;;
7645;SDS011;3864;48.180;14.178;2024-02-23T13:16:34;1.92;;;1.20;;
7645;SDS011;3864;48.180;14.178;2024-02-23T13:19:01;2.03;;;1.23;;
7645;SDS011;3864;48.180;14.178;2024-02-23T13:21:29;2.80;;;1.30;;
7645;SDS011;3864;48.180;14.178;2024-02-23T13:23:59;1.35;;;1.00;;
7645;SDS011;3864;48.180;14.178;2024-02-23T13:26:26;2.58;;;1.30;;
7645;SDS011;3864;48.180;14.178;2024-02-23T13:28:53;1.00;;;1.00;;
7645;SDS011;3864;48.180;14.178;2024-02-23T13:31:20;1.08;;;0.98;;
7645;SDS011;3864;48.180;14.178;2024-02-23T13:33:47;2.33;;;1.25;;
7645;SDS011;3864;48.180;14.178;2024-02-23T13:36:14;1.70;;;1.10;;
7645;SDS011;3864;48.180;14.178;2024-02-23T13:38:42;1.77;;;1.15;;
7645;SDS011;3864;48.180;14.178;2024-02-23T13:41:10;2.00;;;1.08;;
7645;SDS011;3864;48.180;14.178;2024-02-23T13:43:38;1.98;;;1.30;;
7645;SDS011;3864;48.180;14.178;2024-02-23T13:46:05;3.38;;;1.52;;
7645;SDS011;3864;48.180;14.178;2024-02-23T13:51:00;2.30;;;1.27;;
7645;SDS011;3864;48.180;14.178;2024-02-23T13:53:28;2.92;;;1.30;;
7645;SDS011;3864;48.180;14.178;2024-02-23T13:55:57;2.05;;;1.40;;
7645;SDS011;3864;48.180;14.178;2024-02-23T13:58:26;3.05;;;1.52;;
7645;SDS011;3864;48.180;14.178;2024-02-23T14:00:54;3.30;;;1.50;;
7645;SDS011;3864;48.180;14.178;2024-02-23T14:03:21;2.53;;;1.60;;
7645;SDS011;3864;48.180;14.178;2024-02-23T14:05:49;1.73;;;1.33;;
7645;SDS011;3864;48.180;14.178;2024-02-23T14:08:16;5.13;;;1.70;;
7645;SDS011;3864;48.180;14.178;2024-02-23T14:10:44;1.77;;;1.30;;
7645;SDS011;3864;48.180;14.178;2024-02-23T14:15:39;2.05;;;1.60;;
7645;SDS011;3864;48.180;14.178;2024-02-23T14:18:06;2.80;;;2.30;;
7645;SDS011;3864;48.180;14.178;2024-02-23T14:20:33;3.08;;;2.05;;
7645;SDS011;3864;48.180;14.178;2024-02-23T14:23:01;3.10;;;2.17;;
7645;SDS011;3864;48.180;14.178;2024-02-23T14:25:28;2.88;;;2.17;;
7645;SDS011;3864;48.180;14.178;2024-02-23T14:27:55;3.45;;;2.30;;
7645;SDS011;3864;48.180;14.178;2024-02-23T14:30:22;3.35;;;2.38;;
7645;SDS011;3864;48.180;14.178;2024-02-23T14:32:51;4.00;;;2.67;;
7645;SDS011;3864;48.180;14.178;2024-02-23T14:35:18;3.75;;;2.70;;
7645;SDS011;3864;48.180;14.178;2024-02-23T14:37:46;3.75;;;2.38;;
7645;SDS011;3864;48.180;14.178;2024-02-23T14:40:13;3.80;;;2.72;;
7645;SDS011;3864;48.180;14.178;2024-02-23T14:42:40;3.83;;;2.60;;
7645;SDS011;3864;48.180;14.178;2024-02-23T14:45:09;4.05;;;2.40;;
7645;SDS011;3864;48.180;14.178;2024-02-23T14:47:38;3.90;;;2.40;;
7645;SDS011;3864;48.180;14.178;2024-02-23T14:50:07;3.65;;;2.50;;
7645;SDS011;3864;48.180;14.178;2024-02-23T14:52:34;5.28;;;2.85;;
7645;SDS011;3864;48.180;14.178;2024-02-23T14:55:02;3.70;;;2.58;;
7645;SDS011;3864;48.180;14.178;2024-02-23T14:57:30;3.67;;;2.40;;
7645;SDS011;3864;48.180;14.178;2024-02-23T14:59:57;3.03;;;2.13;;
7645;SDS011;3864;48.180;14.178;2024-02-23T15:02:24;3.72;;;2.45;;
7645;SDS011;3864;48.180;14.178;2024-02-23T15:04:51;5.65;;;2.50;;
7645;SDS011;3864;48.180;14.178;2024-02-23T15:09:47;3.38;;;2.03;;
7645;SDS011;3864;48.180;14.178;2024-02-23T15:12:14;3.35;;;2.40;;
7645;SDS011;3864;48.180;14.178;2024-02-23T15:14:41;3.63;;;2.42;;
7645;SDS011;3864;48.180;14.178;2024-02-23T15:17:08;6.82;;;2.40;;
7645;SDS011;3864;48.180;14.178;2024-02-23T15:19:35;2.75;;;1.65;;